Time;durP1;ratioP1;P1;durP2;ratioP2;P2;SDS_P1;SDS_P2;PMS_P1;PMS_P2;Temp;Humidity;BMP_temperature;BMP_pressure;BME280_temperature;BME280_humidity;BME280_pressure;Samples;Min_cycle;Max_cycle;Signal;HPM_P1;HPM_P2
2022/10/11 03:02:04;;;;;;;;;;;6.30;99.90;;;;;;5470139;23;19968;-64
2022/10/11 03:04:31;;;;;;;;;;;6.30;99.90;;;;;;5031132;28;19968;-64
2022/10/11 03:06:57;;;;;;;;;;;6.40;99.90;;;;;;5031458;28;20023;-66
2022/10/11 03:09:24;;;;;;;;;;;6.30;99.90;;;;;;5031069;28;20314;-62
2022/10/11 03:11:50;;;;;;;;;;;6.30;99.90;;;;;;5020947;28;19925;-64
2022/10/11 03:14:17;;;;;;;;;;;6.20;99.90;;;;;;5011218;28;20023;-64
2022/10/11 03:16:43;;;;;;;;;;;6.20;99.90;;;;;;5012439;28;20044;-64
2022/10/11 03:19:11;;;;;;;;;;;6.20;99.90;;;;;;5011453;28;19929;-65
2022/10/11 03:21:38;;;;;;;;;;;6.20;99.90;;;;;;5012536;28;19925;-64
2022/10/11 03:24:05;;;;;;;;;;;6.10;99.90;;;;;;5011169;28;19925;-64
2022/10/11 03:26:31;;;;;;;;;;;6.00;99.90;;;;;;5012546;28;20012;-65
2022/10/11 03:28:58;;;;;;;;;;;6.00;99.90;;;;;;5011152;28;19953;-64
2022/10/11 03:31:25;;;;;;;;;;;6.00;99.90;;;;;;5010883;28;19926;-64
2022/10/11 03:33:51;;;;;;;;;;;6.00;99.90;;;;;;5011373;28;20012;-64
2022/10/11 03:36:19;;;;;;;;;;;6.00;99.90;;;;;;5010948;28;19953;-65
2022/10/11 03:38:46;;;;;;;;;;;6.00;99.90;;;;;;5011108;28;19952;-64
2022/10/11 03:41:12;;;;;;;;;;;5.90;99.90;;;;;;5010705;28;19926;-64
2022/10/11 03:43:39;;;;;;;;;;;5.90;99.90;;;;;;5010581;28;19968;-63
2022/10/11 03:46:06;;;;;;;;;;;5.80;99.90;;;;;;5011317;28;20028;-64
2022/10/11 03:48:33;;;;;;;;;;;5.80;99.90;;;;;;5011006;28;20470;-64
2022/10/11 03:50:59;;;;;;;;;;;5.70;99.90;;;;;;5010455;28;19969;-64
2022/10/11 03:53:27;;;;;;;;;;;5.70;99.90;;;;;;5011493;28;19926;-65
2022/10/11 03:55:54;;;;;;;;;;;5.70;99.90;;;;;;5010561;28;20008;-65
2022/10/11 03:58:21;;;;;;;;;;;5.70;99.90;;;;;;5010188;28;19957;-64
2022/10/11 04:00:48;;;;;;;;;;;5.70;99.90;;;;;;5010363;28;19932;-64
2022/10/11 04:03:15;;;;;;;;;;;5.70;99.90;;;;;;5011703;28;19965;-65
2022/10/11 04:05:41;;;;;;;;;;;5.70;99.90;;;;;;5010543;28;20020;-66
2022/10/11 04:08:08;;;;;;;;;;;5.70;99.90;;;;;;5010271;28;20028;-66
2022/10/11 04:10:36;;;;;;;;;;;5.70;99.90;;;;;;5010256;28;19932;-67
2022/10/11 04:13:02;;;;;;;;;;;5.70;99.90;;;;;;5010363;28;19961;-66
2022/10/11 04:15:29;;;;;;;;;;;5.70;99.90;;;;;;5010831;28;19957;-67
2022/10/11 04:17:56;;;;;;;;;;;5.70;99.90;;;;;;5010499;28;20396;-66
2022/10/11 04:20:22;;;;;;;;;;;5.60;99.90;;;;;;5010099;28;19925;-67
2022/10/11 04:22:49;;;;;;;;;;;5.70;99.90;;;;;;5009020;28;19940;-66
2022/10/11 04:25:15;;;;;;;;;;;5.70;99.90;;;;;;5009563;28;19932;-65
2022/10/11 04:27:43;;;;;;;;;;;5.70;99.90;;;;;;5010188;28;19953;-66
2022/10/11 04:30:11;;;;;;;;;;;5.60;99.90;;;;;;5010498;28;20430;-63
2022/10/11 04:32:37;;;;;;;;;;;5.60;99.90;;;;;;5010205;28;19931;-66
2022/10/11 04:35:04;;;;;;;;;;;5.50;99.90;;;;;;5011313;28;20400;-66
2022/10/11 04:37:32;;;;;;;;;;;5.50;99.90;;;;;;5010209;28;19975;-67
2022/10/11 04:39:58;;;;;;;;;;;5.50;99.90;;;;;;5010173;28;19951;-66
2022/10/11 04:42:25;;;;;;;;;;;5.40;99.90;;;;;;5009930;28;19931;-66
2022/10/11 04:44:53;;;;;;;;;;;5.40;99.90;;;;;;5010397;28;19932;-67
2022/10/11 04:47:19;;;;;;;;;;;5.40;99.90;;;;;;5010274;28;20517;-67
2022/10/11 04:49:46;;;;;;;;;;;5.40;99.90;;;;;;5009709;28;19961;-65
2022/10/11 04:52:13;;;;;;;;;;;5.40;99.90;;;;;;5009720;28;20457;-66
2022/10/11 04:54:39;;;;;;;;;;;5.40;99.90;;;;;;5009905;28;19926;-66
2022/10/11 04:57:06;;;;;;;;;;;5.40;99.90;;;;;;5010167;28;19925;-67
2022/10/11 04:59:33;;;;;;;;;;;5.30;99.90;;;;;;5009772;28;19979;-66
2022/10/11 05:02:01;;;;;;;;;;;5.30;99.90;;;;;;5004753;28;19930;-64
2022/10/11 05:04:27;;;;;;;;;;;5.30;99.90;;;;;;5010109;28;19926;-67
2022/10/11 05:06:54;;;;;;;;;;;5.20;99.90;;;;;;5003453;28;19926;-63
2022/10/11 05:09:21;;;;;;;;;;;5.20;99.90;;;;;;4990970;28;19930;-66
2022/10/11 05:11:48;;;;;;;;;;;5.20;99.90;;;;;;5005298;28;19926;-66
2022/10/11 05:14:15;;;;;;;;;;;5.10;99.90;;;;;;5013479;28;19926;-66
2022/10/11 05:16:42;;;;;;;;;;;5.10;99.90;;;;;;5013810;28;19933;-66
2022/10/11 05:19:11;;;;;;;;;;;5.10;99.90;;;;;;5013003;28;20451;-66
2022/10/11 05:21:37;;;;;;;;;;;5.10;99.90;;;;;;5013650;28;19925;-65
2022/10/11 05:24:05;;;;;;;;;;;5.10;99.90;;;;;;5013089;28;19980;-65
2022/10/11 05:26:31;;;;;;;;;;;5.10;99.90;;;;;;5013226;28;19960;-67
2022/10/11 05:28:58;;;;;;;;;;;5.10;99.90;;;;;;5013570;28;20366;-66
2022/10/11 05:31:25;;;;;;;;;;;5.10;99.90;;;;;;5013865;28;19964;-66
2022/10/11 05:33:51;;;;;;;;;;;5.10;99.90;;;;;;5013673;28;19929;-66
2022/10/11 05:36:20;;;;;;;;;;;5.10;99.90;;;;;;5010752;28;19930;-66
2022/10/11 05:38:46;;;;;;;;;;;5.10;99.90;;;;;;4993724;28;19925;-66
2022/10/11 05:41:14;;;;;;;;;;;5.00;99.90;;;;;;4993611;28;19930;-65
2022/10/11 05:43:40;;;;;;;;;;;5.10;99.90;;;;;;5003039;28;19930;-66
2022/10/11 05:46:07;;;;;;;;;;;5.10;99.90;;;;;;5013066;28;19932;-66
2022/10/11 05:48:34;;;;;;;;;;;5.10;99.90;;;;;;5013013;28;19925;-66
2022/10/11 05:51:02;;;;;;;;;;;5.10;99.90;;;;;;5012718;28;19975;-66
2022/10/11 05:53:30;;;;;;;;;;;5.00;99.90;;;;;;5012565;28;19925;-68
2022/10/11 05:55:57;;;;;;;;;;;5.00;99.90;;;;;;5013183;28;19929;-66
2022/10/11 05:58:24;;;;;;;;;;;4.90;99.90;;;;;;5013044;28;19926;-66
2022/10/11 06:00:51;;;;;;;;;;;4.90;99.90;;;;;;5012386;28;19980;-66
2022/10/11 06:03:19;;;;;;;;;;;5.00;99.90;;;;;;5012603;28;20347;-65
2022/10/11 06:05:46;;;;;;;;;;;4.90;99.90;;;;;;5012976;28;20273;-66
2022/10/11 06:08:13;;;;;;;;;;;5.00;99.90;;;;;;5013267;28;19976;-66
2022/10/11 06:10:41;;;;;;;;;;;5.00;99.90;;;;;;5012584;28;19934;-66
2022/10/11 06:13:09;;;;;;;;;;;5.00;99.90;;;;;;5012451;28;19925;-65
2022/10/11 06:15:38;;;;;;;;;;;5.00;99.90;;;;;;5013081;28;19925;-65
2022/10/11 06:18:05;;;;;;;;;;;5.00;99.90;;;;;;5012625;28;19925;-63
2022/10/11 06:20:32;;;;;;;;;;;5.10;99.90;;;;;;5011960;28;19999;-66
2022/10/11 06:22:59;;;;;;;;;;;5.10;99.90;;;;;;5012486;28;19929;-66
2022/10/11 06:25:25;;;;;;;;;;;5.10;99.90;;;;;;5012892;28;20460;-65
2022/10/11 06:27:54;;;;;;;;;;;5.20;99.90;;;;;;5012222;28;20435;-66
2022/10/11 06:30:21;;;;;;;;;;;5.20;99.90;;;;;;5012362;28;19930;-68
2022/10/11 06:32:48;;;;;;;;;;;5.30;99.90;;;;;;5011785;28;19979;-66
2022/10/11 06:35:14;;;;;;;;;;;5.40;99.90;;;;;;5012071;28;19925;-65
2022/10/11 06:37:41;;;;;;;;;;;5.40;99.90;;;;;;5012697;28;19929;-67
2022/10/11 06:40:08;;;;;;;;;;;5.50;99.90;;;;;;5011836;28;19930;-66
2022/10/11 06:42:35;;;;;;;;;;;5.50;99.90;;;;;;5011492;28;19926;-66
2022/10/11 06:45:03;;;;;;;;;;;5.50;99.90;;;;;;5011677;28;19929;-65
2022/10/11 06:47:30;;;;;;;;;;;5.60;99.90;;;;;;5011702;28;19984;-65
2022/10/11 06:49:57;;;;;;;;;;;5.60;99.90;;;;;;5011526;28;20345;-66
2022/10/11 06:52:24;;;;;;;;;;;5.70;99.90;;;;;;5011571;28;19925;-66
2022/10/11 06:54:51;;;;;;;;;;;5.70;99.90;;;;;;5011786;28;20466;-66
2022/10/11 06:57:17;;;;;;;;;;;5.80;99.90;;;;;;5011324;28;19929;-65
2022/10/11 06:59:44;;;;;;;;;;;5.90;99.90;;;;;;5010847;28;20426;-65
2022/10/11 07:02:12;;;;;;;;;;;5.90;99.90;;;;;;5010703;28;19956;-64
2022/10/11 07:04:39;;;;;;;;;;;5.90;99.90;;;;;;5011166;28;19925;-65
2022/10/11 07:07:06;;;;;;;;;;;5.90;99.90;;;;;;5011452;28;19926;-65
2022/10/11 07:09:34;;;;;;;;;;;6.00;99.90;;;;;;5010768;28;20388;-65
2022/10/11 07:12:01;;;;;;;;;;;6.10;99.90;;;;;;5010539;28;20338;-62
2022/10/11 07:14:28;;;;;;;;;;;6.10;99.90;;;;;;5011046;28;19934;-65
2022/10/11 07:16:54;;;;;;;;;;;6.20;99.90;;;;;;5011459;28;19933;-64
2022/10/11 07:19:22;;;;;;;;;;;6.30;99.90;;;;;;5010542;28;20007;-65
2022/10/11 07:21:49;;;;;;;;;;;6.50;99.90;;;;;;5010196;28;19948;-65
2022/10/11 07:24:16;;;;;;;;;;;6.60;99.90;;;;;;5010466;28;19925;-66
2022/10/11 07:26:43;;;;;;;;;;;6.70;99.90;;;;;;5010874;28;19933;-65
2022/10/11 07:29:10;;;;;;;;;;;6.80;99.90;;;;;;5010272;28;19929;-62
2022/10/11 07:31:38;;;;;;;;;;;6.90;99.90;;;;;;5009929;28;19925;-63
2022/10/11 07:34:05;;;;;;;;;;;7.00;99.90;;;;;;5008289;28;20356;-63
2022/10/11 07:36:33;;;;;;;;;;;7.10;99.90;;;;;;5010527;28;19937;-62
2022/10/11 07:39:00;;;;;;;;;;;7.20;99.90;;;;;;5009508;28;19925;-63
2022/10/11 07:41:26;;;;;;;;;;;7.30;99.90;;;;;;5010382;28;19979;-63
2022/10/11 07:43:53;;;;;;;;;;;7.30;99.90;;;;;;5006363;28;19940;-64
2022/10/11 07:46:20;;;;;;;;;;;7.50;99.90;;;;;;5000579;28;19932;-63
2022/10/11 07:48:48;;;;;;;;;;;7.70;99.90;;;;;;4996400;28;19930;-62
2022/10/11 07:51:16;;;;;;;;;;;7.80;99.90;;;;;;4992690;28;19925;-63
2022/10/11 07:53:47;;;;;;;;;;;7.90;99.90;;;;;;5010508;28;19925;-64
2022/10/11 07:56:14;;;;;;;;;;;8.00;99.90;;;;;;5011064;28;20300;-64
2022/10/11 07:58:42;;;;;;;;;;;8.10;99.90;;;;;;5004961;28;19929;-64
2022/10/11 08:01:09;;;;;;;;;;;8.20;99.90;;;;;;4990831;28;20375;-64
2022/10/11 08:03:36;;;;;;;;;;;8.20;99.90;;;;;;5002340;28;19949;-63
2022/10/11 08:06:03;;;;;;;;;;;8.40;99.90;;;;;;4997493;28;19975;-63
2022/10/11 08:08:31;;;;;;;;;;;8.50;99.90;;;;;;5006863;28;19926;-63
2022/10/11 08:10:59;;;;;;;;;;;8.60;99.90;;;;;;5010582;28;20016;-60
2022/10/11 08:13:26;;;;;;;;;;;8.80;99.90;;;;;;5010845;28;20396;-63
2022/10/11 08:15:53;;;;;;;;;;;8.80;99.90;;;;;;5010881;28;19988;-66
2022/10/11 08:18:20;;;;;;;;;;;8.90;99.90;;;;;;5009798;28;19925;-65
2022/10/11 08:20:47;;;;;;;;;;;9.00;99.90;;;;;;5009221;28;19964;-66
2022/10/11 08:23:15;;;;;;;;;;;9.10;99.90;;;;;;5009549;28;19932;-66
2022/10/11 08:25:42;;;;;;;;;;;9.20;99.90;;;;;;5010208;28;20030;-65
2022/10/11 08:28:15;;;;;;;;;;;9.40;99.90;;;;;;5011240;28;19932;-64
2022/10/11 08:30:47;;;;;;;;;;;9.50;99.90;;;;;;5010918;28;20376;-64
2022/10/11 08:33:13;;;;;;;;;;;9.60;99.90;;;;;;5010475;28;19929;-61
2022/10/11 08:35:40;;;;;;;;;;;9.70;99.90;;;;;;5011089;28;20271;-64
2022/10/11 08:38:07;;;;;;;;;;;9.80;99.90;;;;;;5011132;28;19933;-64
2022/10/11 08:40:34;;;;;;;;;;;9.90;99.90;;;;;;5010847;28;19926;-64
2022/10/11 08:43:03;;;;;;;;;;;10.10;99.90;;;;;;5010723;28;20304;-64
2022/10/11 08:45:32;;;;;;;;;;;10.20;99.90;;;;;;5014120;28;20392;-65
2022/10/11 08:48:06;;;;;;;;;;;10.30;99.90;;;;;;5015027;28;20016;-65
2022/10/11 08:50:33;;;;;;;;;;;10.40;99.90;;;;;;5014449;28;20045;-67
2022/10/11 08:53:04;;;;;;;;;;;10.50;99.90;;;;;;5014786;28;20343;-66
2022/10/11 08:55:34;;;;;;;;;;;10.50;99.90;;;;;;5015888;28;19968;-67
2022/10/11 08:58:00;;;;;;;;;;;10.60;99.90;;;;;;5015457;28;19925;-67
2022/10/11 09:00:30;;;;;;;;;;;10.80;99.90;;;;;;5015907;28;20289;-67
2022/10/11 09:03:01;;;;;;;;;;;10.90;99.90;;;;;;5015141;28;19933;-67
2022/10/11 09:05:34;;;;;;;;;;;11.10;99.90;;;;;;5015449;28;19931;-67
2022/10/11 09:08:04;;;;;;;;;;;11.20;99.90;;;;;;5015269;28;20463;-67
2022/10/11 09:10:49;;;;;;;;;;;11.20;99.90;;;;;;5014594;28;19925;-66
2022/10/11 09:13:30;;;;;;;;;;;11.30;99.90;;;;;;5014135;28;19929;-66
2022/10/11 09:16:05;;;;;;;;;;;11.40;99.90;;;;;;5015026;28;19932;-66
2022/10/11 09:18:41;;;;;;;;;;;11.60;99.90;;;;;;5014550;28;20008;-66
2022/10/11 09:21:12;;;;;;;;;;;11.60;99.90;;;;;;5014163;28;19926;-66
2022/10/11 09:23:48;;;;;;;;;;;11.80;99.90;;;;;;5014412;28;19926;-67
2022/10/11 09:26:19;;;;;;;;;;;11.90;99.90;;;;;;5014273;28;19932;-66
2022/10/11 09:28:51;;;;;;;;;;;12.00;99.90;;;;;;5014947;28;19926;-65
2022/10/11 09:31:18;;;;;;;;;;;12.20;99.90;;;;;;5012940;28;19979;-65
2022/10/11 09:33:47;;;;;;;;;;;12.40;99.90;;;;;;5012280;28;19933;-65
2022/10/11 09:36:17;;;;;;;;;;;12.50;99.90;;;;;;5013777;28;20285;-65
2022/10/11 09:38:48;;;;;;;;;;;12.60;99.90;;;;;;5013184;28;19982;-66
2022/10/11 09:41:17;;;;;;;;;;;12.70;99.90;;;;;;5013353;28;19925;-64
2022/10/11 09:43:47;;;;;;;;;;;12.90;99.90;;;;;;5009063;28;19979;-65
2022/10/11 09:46:17;;;;;;;;;;;13.00;99.90;;;;;;4996537;28;19933;-65
2022/10/11 09:48:46;;;;;;;;;;;13.30;99.90;;;;;;5009803;28;19925;-65
2022/10/11 09:51:15;;;;;;;;;;;13.40;99.90;;;;;;5012822;28;20165;-66
2022/10/11 09:53:53;;;;;;;;;;;13.60;99.90;;;;;;5012641;28;19937;-65
2022/10/11 09:56:20;;;;;;;;;;;13.80;99.90;;;;;;5012552;28;20351;-65
2022/10/11 09:58:46;;;;;;;;;;;13.90;99.90;;;;;;5012304;28;19960;-65
2022/10/11 10:01:23;;;;;;;;;;;14.10;99.90;;;;;;5012266;28;20351;-67
2022/10/11 10:04:03;;;;;;;;;;;14.40;99.90;;;;;;5010095;28;19925;-65
2022/10/11 10:06:30;;;;;;;;;;;14.80;99.90;;;;;;5003355;28;19926;-65
2022/10/11 10:09:18;;;;;;;;;;;14.90;99.90;;;;;;4996199;28;19926;-65
2022/10/11 10:11:45;;;;;;;;;;;15.20;99.90;;;;;;4993041;28;19929;-64
2022/10/11 10:14:18;;;;;;;;;;;15.50;99.90;;;;;;4992913;28;19984;-64
2022/10/11 10:16:45;;;;;;;;;;;15.90;99.90;;;;;;4992776;28;19995;-65
2022/10/11 10:19:18;;;;;;;;;;;16.00;99.90;;;;;;4992237;28;19953;-65
2022/10/11 10:21:46;;;;;;;;;;;16.30;99.90;;;;;;4993029;28;19926;-66
2022/10/11 10:24:18;;;;;;;;;;;16.70;99.90;;;;;;4992800;28;19952;-65
2022/10/11 10:27:04;;;;;;;;;;;17.40;99.90;;;;;;5012453;28;19957;-65
2022/10/11 10:29:30;;;;;;;;;;;17.50;99.90;;;;;;5013157;28;20032;-66
2022/10/11 10:31:58;;;;;;;;;;;19.40;99.90;;;;;;5011395;28;20358;-66
2022/10/11 10:34:28;;;;;;;;;;;21.80;99.90;;;;;;5008851;28;19936;-65
2022/10/11 10:36:56;;;;;;;;;;;22.50;99.90;;;;;;5012189;28;19930;-64
2022/10/11 10:39:25;;;;;;;;;;;25.40;99.90;;;;;;5011665;28;20342;-65
2022/10/11 10:41:52;;;;;;;;;;;23.30;99.90;;;;;;5011958;28;19932;-66
2022/10/11 10:44:19;;;;;;;;;;;21.30;99.90;;;;;;5011516;28;19934;-64
2022/10/11 10:46:51;;;;;;;;;;;19.60;99.90;;;;;;5011608;28;19925;-65
2022/10/11 10:49:23;;;;;;;;;;;18.20;99.90;;;;;;5011837;28;19926;-64
2022/10/11 10:52:01;;;;;;;;;;;17.30;99.90;;;;;;5011457;28;20027;-69
2022/10/11 10:54:35;;;;;;;;;;;17.30;99.90;;;;;;5011083;28;19972;-65
2022/10/11 10:57:04;;;;;;;;;;;18.50;99.90;;;;;;5012668;28;19930;-65
2022/10/11 10:59:39;;;;;;;;;;;24.10;99.90;;;;;;5012036;28;19925;-65
2022/10/11 11:02:10;;;;;;;;;;;28.50;99.90;;;;;;5012522;28;19926;-65
2022/10/11 11:04:37;;;;;;;;;;;31.30;99.90;;;;;;5012609;28;20404;-66
2022/10/11 11:07:13;;;;;;;;;;;32.40;99.90;;;;;;5011442;28;19929;-62
2022/10/11 11:09:45;;;;;;;;;;;33.80;99.90;;;;;;5011968;28;20392;-65
2022/10/11 11:12:18;;;;;;;;;;;33.60;99.90;;;;;;5011869;28;19932;-65
2022/10/11 11:14:50;;;;;;;;;;;34.50;99.90;;;;;;5012262;28;19926;-66
2022/10/11 11:17:23;;;;;;;;;;;35.40;99.90;;;;;;5008172;28;19926;-65
2022/10/11 11:19:57;;;;;;;;;;;34.80;99.90;;;;;;5008124;28;19926;-67
2022/10/11 11:22:31;;;;;;;;;;;34.60;99.90;;;;;;5000234;28;19934;-65
2022/10/11 11:25:02;;;;;;;;;;;34.90;99.90;;;;;;4991626;28;19926;-66
2022/10/11 11:27:40;;;;;;;;;;;34.50;99.90;;;;;;5023987;28;19926;-66
2022/10/11 11:30:09;;;;;;;;;;;36.80;99.90;;;;;;5023455;28;19934;-66
2022/10/11 11:32:41;;;;;;;;;;;36.80;99.80;;;;;;4990894;28;19929;-65
2022/10/11 11:35:09;;;;;;;;;;;37.10;99.60;;;;;;5024017;28;19930;-65
2022/10/11 11:37:39;;;;;;;;;;;37.20;99.30;;;;;;5026813;28;20335;-65
2022/10/11 11:40:13;;;;;;;;;;;36.30;97.80;;;;;;5010186;28;20052;-65
2022/10/11 11:42:42;;;;;;;;;;;36.20;97.60;;;;;;5010659;28;20003;-66
2022/10/11 11:45:15;;;;;;;;;;;34.70;97.40;;;;;;5011064;28;19929;-66
2022/10/11 11:47:43;;;;;;;;;;;35.80;96.60;;;;;;5011131;28;20397;-65
2022/10/11 11:50:21;;;;;;;;;;;36.10;95.80;;;;;;5010446;28;19925;-66
2022/10/11 11:52:51;;;;;;;;;;;37.70;95.50;;;;;;5010212;28;19932;-65
2022/10/11 11:55:20;;;;;;;;;;;34.30;94.90;;;;;;5009845;28;19933;-63
2022/10/11 11:57:53;;;;;;;;;;;32.30;95.20;;;;;;5010037;28;19925;-66
2022/10/11 12:00:20;;;;;;;;;;;32.00;95.40;;;;;;5010034;28;19926;-65
2022/10/11 12:02:50;;;;;;;;;;;31.50;96.60;;;;;;5009586;28;19929;-66
2022/10/11 12:05:20;;;;;;;;;;;30.70;97.20;;;;;;5007491;28;20246;-66
2022/10/11 12:07:48;;;;;;;;;;;27.70;98.30;;;;;;5010661;28;19929;-66
2022/10/11 12:10:23;;;;;;;;;;;27.20;99.00;;;;;;5004613;28;19933;-66
2022/10/11 12:12:59;;;;;;;;;;;29.10;99.90;;;;;;5001683;28;20415;-66
2022/10/11 12:15:26;;;;;;;;;;;32.50;96.30;;;;;;5010144;28;20472;-67
2022/10/11 12:18:20;;;;;;;;;;;33.30;96.20;;;;;;5010448;28;19987;-65
2022/10/11 12:20:46;;;;;;;;;;;29.60;94.30;;;;;;4963656;28;19930;-66
2022/10/11 12:23:32;;;;;;;;;;;28.80;96.70;;;;;;5010384;28;19926;-65
2022/10/11 12:26:30;;;;;;;;;;;30.70;97.10;;;;;;5010498;28;19976;-66
2022/10/11 12:29:02;;;;;;;;;;;32.90;97.20;;;;;;5009862;28;20346;-65
2022/10/11 12:31:30;;;;;;;;;;;33.80;95.90;;;;;;5010368;28;20409;-65
2022/10/11 12:34:14;;;;;;;;;;;30.90;96.20;;;;;;5009947;28;19929;-65
2022/10/11 12:36:42;;;;;;;;;;;29.60;96.30;;;;;;5008942;28;19926;-65
2022/10/11 12:39:23;;;;;;;;;;;30.30;97.80;;;;;;5009783;28;19987;-65
2022/10/11 12:41:53;;;;;;;;;;;32.40;96.90;;;;;;4997699;28;19925;-65
2022/10/11 12:44:21;;;;;;;;;;;34.00;97.30;;;;;;5009576;28;19926;-65
2022/10/11 12:47:12;;;;;;;;;;;34.10;96.30;;;;;;5010257;28;20454;-65
2022/10/11 12:49:48;;;;;;;;;;;34.10;96.50;;;;;;5010216;28;19926;-65
2022/10/11 12:52:23;;;;;;;;;;;33.70;96.10;;;;;;5010117;28;19936;-65
2022/10/11 12:55:00;;;;;;;;;;;33.80;96.00;;;;;;5009973;28;20392;-66
2022/10/11 12:57:40;;;;;;;;;;;34.30;96.50;;;;;;5010659;28;19929;-65
2022/10/11 13:00:17;;;;;;;;;;;34.50;96.30;;;;;;5010229;28;19933;-66
2022/10/11 13:02:44;;;;;;;;;;;34.30;96.50;;;;;;5010107;28;19977;-65
2022/10/11 13:05:18;;;;;;;;;;;33.80;96.90;;;;;;5010087;28;19925;-67
2022/10/11 13:07:45;;;;;;;;;;;33.10;95.10;;;;;;5010288;28;19925;-68
2022/10/11 13:10:13;;;;;;;;;;;33.50;95.70;;;;;;5009382;28;19926;-66
2022/10/11 13:12:43;;;;;;;;;;;33.40;95.90;;;;;;4990331;28;19980;-65
2022/10/11 13:15:13;;;;;;;;;;;32.90;94.80;;;;;;4990419;28;19930;-66
2022/10/11 13:17:40;;;;;;;;;;;33.50;95.50;;;;;;4990494;28;19933;-66
2022/10/11 13:20:13;;;;;;;;;;;33.90;94.70;;;;;;4989564;28;19930;-67
2022/10/11 13:22:40;;;;;;;;;;;33.30;94.20;;;;;;4990160;28;19981;-66
2022/10/11 13:25:07;;;;;;;;;;;32.70;94.20;;;;;;4990360;28;20388;-65
2022/10/11 13:27:36;;;;;;;;;;;32.60;94.40;;;;;;4990108;28;20467;-66
2022/10/11 13:30:08;;;;;;;;;;;31.70;94.40;;;;;;4990326;28;19926;-65
2022/10/11 13:32:36;;;;;;;;;;;32.00;94.90;;;;;;4993693;28;19930;-66
2022/10/11 13:35:04;;;;;;;;;;;32.10;94.30;;;;;;4993877;28;19961;-66
2022/10/11 13:37:36;;;;;;;;;;;31.80;94.00;;;;;;4993584;28;20348;-66
2022/10/11 13:40:03;;;;;;;;;;;32.10;94.40;;;;;;4993189;28;19926;-65
2022/10/11 13:42:31;;;;;;;;;;;31.90;94.20;;;;;;4993632;28;19929;-67
2022/10/11 13:44:59;;;;;;;;;;;31.20;94.30;;;;;;4993508;28;19929;-68
2022/10/11 13:47:29;;;;;;;;;;;30.80;94.40;;;;;;4993628;28;19930;-66
2022/10/11 13:50:01;;;;;;;;;;;30.50;94.10;;;;;;4993163;28;20492;-67
2022/10/11 13:52:28;;;;;;;;;;;30.10;94.90;;;;;;4993016;28;19949;-66
2022/10/11 13:55:08;;;;;;;;;;;30.40;94.70;;;;;;4993151;28;20017;-67
2022/10/11 13:57:37;;;;;;;;;;;29.80;94.50;;;;;;4993278;28;20293;-67
2022/10/11 14:00:09;;;;;;;;;;;30.30;94.80;;;;;;4993184;28;19930;-66
2022/10/11 14:02:46;;;;;;;;;;;30.20;94.60;;;;;;4994119;28;19941;-66
2022/10/11 14:05:20;;;;;;;;;;;29.90;94.30;;;;;;4993090;28;19926;-67
2022/10/11 14:07:47;;;;;;;;;;;29.80;94.50;;;;;;4993281;28;19925;-68
2022/10/11 14:10:18;;;;;;;;;;;29.30;94.40;;;;;;4993669;28;19926;-66
2022/10/11 14:12:56;;;;;;;;;;;28.90;94.40;;;;;;5012420;28;19925;-67
2022/10/11 14:15:24;;;;;;;;;;;29.00;94.30;;;;;;5012356;28;19926;-66
2022/10/11 14:17:52;;;;;;;;;;;29.10;94.10;;;;;;5012526;28;19929;-67
2022/10/11 14:20:21;;;;;;;;;;;28.90;94.50;;;;;;5012055;28;20346;-66
2022/10/11 14:22:50;;;;;;;;;;;28.70;95.40;;;;;;5012128;28;19930;-67
2022/10/11 14:25:17;;;;;;;;;;;28.80;95.10;;;;;;5012310;28;19930;-66
2022/10/11 14:27:44;;;;;;;;;;;29.50;94.70;;;;;;5012456;28;19929;-66
2022/10/11 14:30:14;;;;;;;;;;;29.50;94.60;;;;;;5012191;28;20361;-67
2022/10/11 14:32:42;;;;;;;;;;;29.60;94.70;;;;;;5012087;28;19944;-66
2022/10/11 14:35:16;;;;;;;;;;;29.60;94.90;;;;;;5012246;28;19925;-66
2022/10/11 14:37:43;;;;;;;;;;;30.10;95.00;;;;;;5013398;28;19926;-67
2022/10/11 14:40:12;;;;;;;;;;;30.10;94.80;;;;;;5011829;28;19926;-66
2022/10/11 14:42:39;;;;;;;;;;;29.50;94.70;;;;;;5011192;28;20052;-66
2022/10/11 14:45:06;;;;;;;;;;;28.10;95.10;;;;;;5012203;28;19984;-67
2022/10/11 14:47:34;;;;;;;;;;;27.90;95.40;;;;;;5012100;28;19941;-67
2022/10/11 14:50:01;;;;;;;;;;;27.80;95.90;;;;;;5005764;28;20461;-66
2022/10/11 14:52:29;;;;;;;;;;;28.00;95.50;;;;;;5002199;28;19984;-66
2022/10/11 14:54:56;;;;;;;;;;;28.40;95.70;;;;;;5000131;28;20449;-66
2022/10/11 14:57:23;;;;;;;;;;;28.80;95.20;;;;;;5000571;28;19926;-66
2022/10/11 14:59:49;;;;;;;;;;;28.60;95.20;;;;;;5008237;28;19926;-72
2022/10/11 15:02:16;;;;;;;;;;;28.70;95.70;;;;;;5010733;28;19929;-66
2022/10/11 15:04:43;;;;;;;;;;;28.60;95.00;;;;;;5011917;28;19964;-66
2022/10/11 15:07:12;;;;;;;;;;;28.70;95.00;;;;;;5011375;28;19955;-69
2022/10/11 15:09:40;;;;;;;;;;;28.90;95.40;;;;;;5010921;28;20363;-68
2022/10/11 15:12:07;;;;;;;;;;;29.30;94.80;;;;;;5010669;28;19937;-69
2022/10/11 15:14:33;;;;;;;;;;;29.10;93.70;;;;;;5011306;28;20396;-67
2022/10/11 15:17:00;;;;;;;;;;;28.70;94.00;;;;;;5010976;28;19934;-67
2022/10/11 15:19:27;;;;;;;;;;;27.90;94.20;;;;;;5010818;28;19984;-68
2022/10/11 15:21:54;;;;;;;;;;;27.20;94.50;;;;;;5010827;28;20281;-67
2022/10/11 15:24:20;;;;;;;;;;;27.10;94.70;;;;;;5010879;28;19926;-73
2022/10/11 15:26:49;;;;;;;;;;;27.30;94.50;;;;;;5011480;28;20367;-73
2022/10/11 15:29:17;;;;;;;;;;;27.40;94.50;;;;;;5010709;28;19952;-71
2022/10/11 15:31:44;;;;;;;;;;;27.00;95.10;;;;;;5011219;28;19953;-69
2022/10/11 15:34:11;;;;;;;;;;;26.70;95.10;;;;;;5011525;28;19932;-68
2022/10/11 15:36:38;;;;;;;;;;;26.40;95.60;;;;;;5011848;28;19925;-76
2022/10/11 15:39:16;;;;;;;;;;;25.80;95.70;;;;;;5011047;28;19978;-69
2022/10/11 15:41:43;;;;;;;;;;;25.40;95.90;;;;;;5011182;28;19933;-70
2022/10/11 15:44:11;;;;;;;;;;;25.50;96.00;;;;;;5010651;28;19929;-69
2022/10/11 15:46:40;;;;;;;;;;;25.70;95.80;;;;;;5011248;28;19952;-77
2022/10/11 15:49:11;;;;;;;;;;;25.60;95.90;;;;;;5010922;28;19929;-70
2022/10/11 15:51:37;;;;;;;;;;;25.40;96.10;;;;;;5010869;28;20011;-70
2022/10/11 15:54:05;;;;;;;;;;;25.90;95.90;;;;;;5010591;28;19937;-70
2022/10/11 15:56:32;;;;;;;;;;;26.20;95.90;;;;;;5010565;28;20384;-70
2022/10/11 15:58:58;;;;;;;;;;;25.50;96.00;;;;;;5010680;28;19929;-70
2022/10/11 16:01:27;;;;;;;;;;;25.30;96.30;;;;;;5010554;28;19929;-70
2022/10/11 16:03:53;;;;;;;;;;;25.10;96.50;;;;;;5010222;28;19929;-70
2022/10/11 16:06:20;;;;;;;;;;;24.50;96.60;;;;;;5010500;28;20358;-70
2022/10/11 16:08:47;;;;;;;;;;;23.30;97.10;;;;;;5010583;28;20363;-70
2022/10/11 16:11:14;;;;;;;;;;;22.10;97.80;;;;;;5010312;28;19968;-69
2022/10/11 16:13:41;;;;;;;;;;;21.30;98.40;;;;;;5010017;28;19925;-70
2022/10/11 16:16:08;;;;;;;;;;;20.60;99.40;;;;;;5010523;28;20343;-69
2022/10/11 16:18:36;;;;;;;;;;;20.00;99.90;;;;;;5010874;28;19925;-72
2022/10/11 16:21:05;;;;;;;;;;;19.40;99.90;;;;;;5006860;28;19926;-70
2022/10/11 16:23:31;;;;;;;;;;;18.90;99.90;;;;;;4990632;28;19980;-72
2022/10/11 16:25:59;;;;;;;;;;;18.40;99.90;;;;;;4990718;28;19972;-71
2022/10/11 16:28:27;;;;;;;;;;;18.10;99.90;;;;;;4999607;28;19930;-73
2022/10/11 16:30:54;;;;;;;;;;;17.80;99.90;;;;;;5009955;28;19926;-74
2022/10/11 16:33:21;;;;;;;;;;;17.50;99.90;;;;;;5010239;28;19925;-70
2022/10/11 16:35:49;;;;;;;;;;;17.20;99.90;;;;;;5010194;28;20350;-70
2022/10/11 16:38:16;;;;;;;;;;;16.90;99.90;;;;;;5009923;28;19934;-74
2022/10/11 16:40:43;;;;;;;;;;;16.60;99.90;;;;;;5009594;28;19976;-71
2022/10/11 16:43:10;;;;;;;;;;;16.30;99.90;;;;;;5007434;28;19929;-67
2022/10/11 16:45:37;;;;;;;;;;;16.10;99.90;;;;;;5010188;28;20423;-68
2022/10/11 16:48:04;;;;;;;;;;;15.80;99.90;;;;;;5010199;28;20013;-66
2022/10/11 16:50:31;;;;;;;;;;;15.60;99.90;;;;;;5009718;28;19975;-67
2022/10/11 16:52:59;;;;;;;;;;;15.50;99.90;;;;;;5009615;28;19929;-73
2022/10/11 16:55:26;;;;;;;;;;;15.30;99.90;;;;;;5009959;28;19925;-67
2022/10/11 16:57:52;;;;;;;;;;;15.20;99.90;;;;;;5009835;28;19926;-68
2022/10/11 17:00:19;;;;;;;;;;;14.90;99.90;;;;;;5010493;28;19932;-71
2022/10/11 17:02:46;;;;;;;;;;;14.70;99.90;;;;;;5011342;28;20017;-71
2022/10/11 17:05:13;;;;;;;;;;;14.50;99.90;;;;;;5012428;28;20340;-70
2022/10/11 17:07:40;;;;;;;;;;;14.30;99.90;;;;;;5015305;28;19926;-71
2022/10/11 17:10:08;;;;;;;;;;;14.00;99.90;;;;;;5015155;28;19932;-71
2022/10/11 17:12:36;;;;;;;;;;;13.90;99.90;;;;;;5011788;28;19926;-71
2022/10/11 17:15:03;;;;;;;;;;;13.70;99.90;;;;;;4996022;28;19925;-69
2022/10/11 17:17:30;;;;;;;;;;;13.50;99.90;;;;;;5013366;28;20305;-69
2022/10/11 17:19:57;;;;;;;;;;;13.40;99.90;;;;;;5013541;28;20385;-70
2022/10/11 17:22:24;;;;;;;;;;;13.30;99.90;;;;;;5013521;28;20447;-74
2022/10/11 17:24:51;;;;;;;;;;;13.20;99.90;;;;;;5013661;28;19926;-68
2022/10/11 17:27:19;;;;;;;;;;;13.10;99.90;;;;;;5013752;28;20347;-68
2022/10/11 17:29:46;;;;;;;;;;;13.00;99.90;;;;;;5015272;28;19973;-68
2022/10/11 17:32:13;;;;;;;;;;;12.90;99.90;;;;;;5014311;28;19925;-67